Amman/Marka

Airport
ICAO code: 
OJAM
Summary
ICAO Region: 
MID
Territory: 
Location: 
Amman, Jordan,
Coordinates: 
Aerial View: 
31° 58' 21.72" N, 35° 59' 29.76" E
Metar
Observation
OJAM 050900Z 25008KT CAVOK 16/04 Q1014 NOSIG
Station
Amman Airport
Date/Time
2021-12-05 09:00:00
Wind direction
250°
Wind speed
08 kts
Lowest cloud amount
clouds and visibility OK
Temperature
16°C
Dew point
4°C
Humidity
44%
QNH
1014 hPa
Weather condition
n/a

Description

Military airport.

Climatology

Dry-summer subtropical ”Mediterranean" climate (Köppen climate classification Csa) - characterized by hot, dry summers and mild winters. During the summer, subtropical high pressure cells dominate, making rainfall unlikely except for the occasional thunderstorm. In the winter, periodic storms bring rain.

Runways

Designator Length Width Surface Rops
6/24 3275 45 ASP Yes/Yes
Airport map: 
Aerial View: 

SKYbrary Partners:

Safety knowledge contributed by: